createdAt,value
2019-01-20T00:00:10.800Z,10.80
2019-01-20T00:00:17.059Z,7.62
2019-01-20T00:01:10.823Z,13.20
2019-01-20T00:02:10.823Z,9.50
2019-01-20T00:02:44.980Z,5.35
2019-01-20T00:03:10.828Z,8.00
2019-01-20T00:04:10.831Z,9.60
2019-01-20T00:05:10.838Z,9.70
2019-01-20T00:05:13.453Z,5.92
2019-01-20T00:06:10.843Z,8.60
2019-01-20T00:07:10.857Z,10.60
2019-01-20T00:07:41.118Z,5.22
2019-01-20T00:08:10.865Z,10.40
2019-01-20T00:09:10.881Z,10.10
2019-01-20T00:10:08.896Z,8.25
2019-01-20T00:10:10.923Z,12.40
2019-01-20T00:11:16.575Z,13.20
2019-01-20T00:12:10.912Z,12.30
2019-01-20T00:12:36.571Z,8.70
2019-01-20T00:13:10.924Z,10.50
2019-01-20T00:14:10.933Z,14.30
2019-01-20T00:15:05.274Z,7.17
2019-01-20T00:15:10.952Z,13.20
2019-01-20T00:16:10.951Z,9.40
2019-01-20T00:17:10.989Z,8.80
2019-01-20T00:17:33.236Z,7.95
2019-01-20T00:18:10.965Z,11.50
2019-01-20T00:19:10.972Z,9.30
2019-01-20T00:20:00.799Z,6.67
2019-01-20T00:20:10.999Z,8.70
2019-01-20T00:21:10.997Z,11.20
2019-01-20T00:22:11.006Z,12.80
2019-01-20T00:22:28.352Z,10.03
2019-01-20T00:23:11.012Z,8.90
2019-01-20T00:24:11.027Z,11.40
2019-01-20T00:24:56.029Z,6.87
2019-01-20T00:25:11.152Z,10.40
2019-01-20T00:26:11.043Z,11.50
2019-01-20T00:27:11.057Z,12.10
2019-01-20T00:27:23.838Z,7.10
2019-01-20T00:28:11.078Z,7.70
2019-01-20T00:29:11.078Z,10.90
2019-01-20T00:29:51.321Z,9.28
2019-01-20T00:30:11.094Z,10.40
2019-01-20T00:31:11.094Z,13.40
2019-01-20T00:32:11.103Z,11.60
2019-01-20T00:32:19.023Z,8.23
2019-01-20T00:33:11.136Z,8.60
2019-01-20T00:34:11.205Z,8.70
2019-01-20T00:34:46.579Z,5.17
2019-01-20T00:35:11.131Z,7.80
2019-01-20T00:36:11.152Z,11.10
2019-01-20T00:37:11.153Z,10.10
2019-01-20T00:37:14.165Z,4.55
2019-01-20T00:38:11.167Z,9.50
2019-01-20T00:39:11.168Z,7.70
2019-01-20T00:39:41.741Z,4.97
2019-01-20T00:40:11.180Z,7.10
2019-01-20T00:41:11.191Z,8.80
2019-01-20T00:42:09.492Z,5.97
2019-01-20T00:42:11.200Z,7.20
2019-01-20T00:43:11.208Z,8.10
2019-01-20T00:44:11.220Z,10.30
2019-01-20T00:44:37.065Z,5.83
2019-01-20T00:45:11.228Z,8.10
2019-01-20T00:46:11.244Z,12.80
2019-01-20T00:47:04.908Z,6.10
2019-01-20T00:47:11.251Z,8.90
2019-01-20T00:48:11.268Z,8.10
2019-01-20T00:49:11.275Z,7.00
2019-01-20T00:49:32.476Z,7.62
2019-01-20T00:50:11.286Z,8.20
2019-01-20T00:51:11.297Z,11.00
2019-01-20T00:52:00.146Z,7.33
2019-01-20T00:52:11.296Z,7.30
2019-01-20T00:53:11.317Z,6.00
2019-01-20T00:54:11.315Z,9.70
2019-01-20T00:54:27.889Z,6.90
2019-01-20T00:55:11.325Z,13.80
2019-01-20T00:56:11.334Z,12.10
2019-01-20T00:56:55.651Z,6.65
2019-01-20T00:57:11.345Z,9.30
2019-01-20T00:58:11.375Z,10.00
2019-01-20T00:59:11.368Z,10.20
2019-01-20T00:59:23.317Z,5.47
2019-01-20T01:00:11.381Z,8.90
2019-01-20T01:01:11.391Z,9.80
2019-01-20T01:01:53.807Z,6.60
2019-01-20T01:02:11.395Z,9.10
2019-01-20T01:03:11.410Z,9.60
2019-01-20T01:04:11.434Z,8.90
2019-01-20T01:04:21.419Z,7.70
2019-01-20T01:05:11.431Z,9.80
2019-01-20T01:06:11.432Z,10.60
2019-01-20T01:06:49.085Z,8.58
2019-01-20T01:07:11.440Z,9.00
2019-01-20T01:08:11.456Z,10.70
2019-01-20T01:09:11.470Z,8.20
2019-01-20T01:09:16.747Z,9.88
2019-01-20T01:10:11.471Z,12.50
2019-01-20T01:11:11.490Z,8.30
2019-01-20T01:11:44.383Z,8.98
2019-01-20T01:12:11.489Z,11.40
2019-01-20T01:13:11.508Z,10.00
2019-01-20T01:14:11.519Z,8.80
2019-01-20T01:14:12.048Z,7.40
2019-01-20T01:15:11.546Z,9.40
2019-01-20T01:16:11.527Z,12.90
2019-01-20T01:16:39.599Z,7.45
2019-01-20T01:17:11.542Z,9.60
2019-01-20T01:18:11.556Z,11.60
2019-01-20T01:19:07.182Z,9.83
2019-01-20T01:19:11.555Z,9.80
2019-01-20T01:20:11.577Z,7.60
2019-01-20T01:21:11.576Z,10.50
2019-01-20T01:21:35.640Z,7.05
2019-01-20T01:22:11.590Z,7.10
2019-01-20T01:23:11.601Z,12.30
2019-01-20T01:24:03.118Z,6.05
2019-01-20T01:24:11.610Z,10.50
2019-01-20T01:25:11.614Z,8.90
2019-01-20T01:26:11.631Z,9.10
2019-01-20T01:26:30.724Z,6.45
2019-01-20T01:27:11.638Z,9.30
2019-01-20T01:28:11.642Z,9.60
2019-01-20T01:28:58.252Z,8.38
2019-01-20T01:29:11.662Z,8.50
2019-01-20T01:30:11.692Z,8.60
2019-01-20T01:31:11.676Z,10.10
2019-01-20T01:31:25.874Z,9.33
2019-01-20T01:32:11.678Z,11.00
2019-01-20T01:33:11.708Z,10.40
2019-01-20T01:33:53.495Z,7.80
2019-01-20T01:34:11.713Z,10.60
2019-01-20T01:35:11.715Z,11.70
2019-01-20T01:36:11.731Z,9.10
2019-01-20T01:36:21.301Z,8.35
2019-01-20T01:37:11.730Z,9.90
2019-01-20T01:38:11.742Z,10.30
2019-01-20T01:38:48.869Z,5.92
2019-01-20T01:39:11.747Z,10.60
2019-01-20T01:40:11.764Z,10.80
2019-01-20T01:41:11.771Z,9.20
2019-01-20T01:41:16.518Z,7.95
2019-01-20T01:42:11.788Z,10.20
2019-01-20T01:43:11.796Z,11.70
2019-01-20T01:43:44.173Z,6.62
2019-01-20T01:44:11.803Z,9.10
2019-01-20T01:45:11.817Z,11.60
2019-01-20T01:46:11.772Z,6.05
2019-01-20T01:46:11.816Z,9.30
2019-01-20T01:47:11.826Z,10.50
2019-01-20T01:48:11.844Z,9.20
2019-01-20T01:48:39.280Z,8.33
2019-01-20T01:49:11.848Z,13.40
2019-01-20T01:50:11.884Z,8.90
2019-01-20T01:51:07.951Z,8.25
2019-01-20T01:51:11.870Z,9.40
2019-01-20T01:52:11.879Z,8.40
2019-01-20T01:53:11.885Z,7.10
2019-01-20T01:53:35.954Z,8.20
2019-01-20T01:54:11.924Z,11.20
2019-01-20T01:55:11.911Z,9.70
2019-01-20T01:56:03.647Z,8.55
2019-01-20T01:56:11.913Z,9.10
2019-01-20T01:57:11.934Z,7.90
2019-01-20T01:58:11.933Z,10.00
2019-01-20T01:58:33.239Z,7.12
2019-01-20T01:59:11.949Z,15.80
2019-01-20T02:00:11.961Z,10.50
2019-01-20T02:01:00.665Z,6.87
2019-01-20T02:01:11.965Z,9.00
2019-01-20T02:02:11.972Z,8.60
2019-01-20T02:03:11.990Z,9.80
2019-01-20T02:03:28.433Z,9.05
2019-01-20T02:04:11.990Z,9.60
2019-01-20T02:05:12.002Z,6.60
2019-01-20T02:05:55.988Z,8.73
2019-01-20T02:06:12.013Z,11.00
2019-01-20T02:07:12.020Z,7.60
2019-01-20T02:08:12.027Z,7.70
2019-01-20T02:08:23.751Z,8.70
2019-01-20T02:09:12.055Z,9.50
2019-01-20T02:10:12.051Z,8.70
2019-01-20T02:10:51.422Z,10.82
2019-01-20T02:11:12.059Z,12.40
2019-01-20T02:12:12.108Z,9.90
2019-01-20T02:13:12.079Z,8.80
2019-01-20T02:13:19.073Z,5.70
2019-01-20T02:14:12.098Z,8.50
2019-01-20T02:15:12.095Z,9.80
2019-01-20T02:15:46.747Z,7.72
2019-01-20T02:16:12.106Z,11.80
2019-01-20T02:17:12.112Z,8.40
2019-01-20T02:18:12.132Z,10.20
2019-01-20T02:18:14.592Z,7.45
2019-01-20T02:19:12.151Z,11.30
2019-01-20T02:20:12.162Z,11.00
2019-01-20T02:20:42.360Z,7.67
2019-01-20T02:21:12.156Z,9.70
2019-01-20T02:22:12.172Z,9.90
2019-01-20T02:23:09.875Z,7.67
2019-01-20T02:23:12.173Z,8.00
2019-01-20T02:24:12.175Z,10.10
2019-01-20T02:25:12.186Z,8.40
2019-01-20T02:25:37.498Z,5.95
2019-01-20T02:26:12.206Z,9.10
2019-01-20T02:27:12.207Z,7.80
2019-01-20T02:28:05.170Z,7.37
2019-01-20T02:28:12.221Z,9.40
2019-01-20T02:29:12.225Z,7.00
2019-01-20T02:30:12.233Z,9.30
2019-01-20T02:30:32.692Z,6.53
2019-01-20T02:31:12.247Z,7.80
2019-01-20T02:32:12.257Z,10.10
2019-01-20T02:33:00.305Z,8.33
2019-01-20T02:33:12.281Z,10.40
2019-01-20T02:34:12.266Z,10.30
2019-01-20T02:35:12.279Z,10.10
2019-01-20T02:35:27.813Z,8.38
2019-01-20T02:36:12.318Z,8.00
2019-01-20T02:37:12.303Z,11.20
2019-01-20T02:37:55.473Z,8.23
2019-01-20T02:38:12.318Z,8.70
2019-01-20T02:39:12.325Z,10.30
2019-01-20T02:40:12.336Z,10.00
2019-01-20T02:40:23.047Z,7.45
2019-01-20T02:41:12.344Z,11.70
2019-01-20T02:42:12.349Z,12.10
2019-01-20T02:42:50.488Z,13.32
2019-01-20T02:43:12.352Z,17.50
2019-01-20T02:44:12.366Z,14.80
2019-01-20T02:45:12.373Z,12.00
2019-01-20T02:45:18.179Z,8.75
2019-01-20T02:46:12.385Z,12.80
2019-01-20T02:47:12.392Z,13.10
2019-01-20T02:47:45.734Z,8.90
2019-01-20T02:48:12.410Z,12.50
2019-01-20T02:49:12.414Z,14.80
2019-01-20T02:50:12.451Z,14.50
2019-01-20T02:50:14.298Z,8.43
2019-01-20T02:51:12.462Z,15.20
2019-01-20T02:52:12.444Z,11.00
2019-01-20T02:52:44.439Z,9.95
2019-01-20T02:53:12.450Z,14.90
2019-01-20T02:54:12.458Z,9.80
2019-01-20T02:55:12.292Z,9.15
2019-01-20T02:55:12.466Z,13.00
2019-01-20T02:56:12.488Z,15.20
2019-01-20T02:57:12.487Z,10.10
2019-01-20T02:57:39.926Z,9.35
2019-01-20T02:58:12.510Z,12.70
2019-01-20T02:59:12.511Z,13.00
2019-01-20T03:00:12.508Z,10.70
2019-01-20T03:00:18.241Z,6.97
2019-01-20T03:01:12.523Z,9.90
2019-01-20T03:02:12.532Z,10.40
2019-01-20T03:02:45.797Z,10.28
2019-01-20T03:03:12.543Z,14.10
2019-01-20T03:04:12.552Z,13.10
2019-01-20T03:05:12.564Z,15.00
2019-01-20T03:05:13.879Z,9.00
2019-01-20T03:06:12.567Z,10.50
2019-01-20T03:07:12.584Z,11.70
2019-01-20T03:07:41.527Z,8.15
2019-01-20T03:08:12.602Z,11.40
2019-01-20T03:09:12.606Z,14.00
2019-01-20T03:10:09.610Z,8.88
2019-01-20T03:10:12.610Z,11.40
2019-01-20T03:11:12.614Z,10.40
2019-01-20T03:12:12.629Z,13.60
2019-01-20T03:12:37.116Z,13.60
2019-01-20T03:13:12.643Z,13.10
2019-01-20T03:14:12.646Z,15.90
2019-01-20T03:15:05.510Z,10.65
2019-01-20T03:15:12.653Z,13.90
2019-01-20T03:16:12.662Z,16.60
2019-01-20T03:17:12.739Z,13.50
2019-01-20T03:17:33.000Z,14.43
2019-01-20T03:18:12.683Z,15.60
2019-01-20T03:19:12.710Z,15.60
2019-01-20T03:20:00.616Z,9.05
2019-01-20T03:20:12.698Z,16.80
2019-01-20T03:21:12.708Z,15.80
2019-01-20T03:22:12.728Z,15.90
2019-01-20T03:22:28.291Z,11.78
2019-01-20T03:23:12.732Z,11.60
2019-01-20T03:24:12.765Z,14.60
2019-01-20T03:24:55.891Z,9.50
2019-01-20T03:25:12.748Z,14.70
2019-01-20T03:26:12.756Z,12.00
2019-01-20T03:27:12.759Z,14.30
2019-01-20T03:27:23.672Z,11.35
2019-01-20T03:28:12.774Z,14.50
2019-01-20T03:29:12.788Z,11.10
2019-01-20T03:29:51.375Z,9.45
2019-01-20T03:30:12.793Z,12.60
2019-01-20T03:31:12.804Z,11.00
2019-01-20T03:32:12.839Z,14.00
2019-01-20T03:32:19.320Z,10.53
2019-01-20T03:33:12.829Z,13.90
2019-01-20T03:34:12.829Z,12.20
2019-01-20T03:34:47.038Z,8.13
2019-01-20T03:35:12.839Z,11.40
2019-01-20T03:36:12.842Z,13.10
2019-01-20T03:37:12.871Z,12.30
2019-01-20T03:37:14.623Z,8.33
2019-01-20T03:38:12.871Z,13.60
2019-01-20T03:39:12.879Z,14.30
2019-01-20T03:39:42.345Z,9.45
2019-01-20T03:40:12.898Z,12.50
2019-01-20T03:41:12.905Z,12.10
2019-01-20T03:42:12.142Z,8.83
2019-01-20T03:42:12.912Z,16.00
2019-01-20T03:43:12.916Z,12.30
2019-01-20T03:44:12.937Z,10.80
2019-01-20T03:44:39.617Z,12.75
2019-01-20T03:45:12.938Z,13.80
2019-01-20T03:46:12.938Z,14.50
2019-01-20T03:47:07.184Z,10.08
2019-01-20T03:47:12.948Z,13.50
2019-01-20T03:48:12.958Z,9.90
2019-01-20T03:49:12.975Z,12.40
2019-01-20T03:49:34.648Z,8.88
2019-01-20T03:50:12.987Z,13.80
2019-01-20T03:51:12.987Z,14.50
2019-01-20T03:52:02.271Z,9.63
2019-01-20T03:52:13.011Z,14.70
2019-01-20T03:53:13.012Z,8.70
2019-01-20T03:54:13.008Z,11.20
2019-01-20T03:54:30.973Z,10.35
2019-01-20T03:55:13.028Z,11.30
2019-01-20T03:56:13.034Z,10.60
2019-01-20T03:56:58.751Z,9.38
2019-01-20T03:57:13.050Z,17.80
2019-01-20T03:58:13.063Z,9.80
2019-01-20T03:59:13.055Z,10.40
2019-01-20T03:59:26.227Z,8.68
2019-01-20T04:00:13.065Z,10.30
2019-01-20T04:01:13.078Z,12.60
2019-01-20T04:01:53.961Z,8.70
2019-01-20T04:02:13.098Z,11.70
2019-01-20T04:03:13.100Z,13.60
2019-01-20T04:04:13.111Z,14.10
2019-01-20T04:04:21.623Z,10.08
2019-01-20T04:05:13.145Z,9.70
2019-01-20T04:06:13.129Z,10.60
2019-01-20T04:06:49.476Z,9.68
2019-01-20T04:07:13.127Z,9.60
2019-01-20T04:08:13.138Z,10.70
2019-01-20T04:09:13.148Z,12.60
2019-01-20T04:09:17.137Z,10.68
2019-01-20T04:10:13.180Z,12.80
2019-01-20T04:11:13.170Z,11.30
2019-01-20T04:11:45.235Z,8.68
2019-01-20T04:12:20.569Z,10.30
2019-01-20T04:13:13.197Z,13.70
2019-01-20T04:14:12.869Z,9.43
2019-01-20T04:14:13.198Z,12.60
2019-01-20T04:15:13.208Z,13.00
2019-01-20T04:16:13.223Z,10.60
2019-01-20T04:16:40.738Z,9.55
2019-01-20T04:17:13.238Z,14.00
2019-01-20T04:18:13.237Z,10.90
2019-01-20T04:19:08.412Z,9.25
2019-01-20T04:19:13.243Z,11.00
2019-01-20T04:20:13.266Z,11.40
2019-01-20T04:21:13.259Z,11.10
2019-01-20T04:21:36.115Z,9.95
2019-01-20T04:22:13.285Z,11.60
2019-01-20T04:23:13.274Z,11.00
2019-01-20T04:24:03.926Z,10.00
2019-01-20T04:24:13.282Z,11.90
2019-01-20T04:25:13.297Z,12.00
2019-01-20T04:26:13.307Z,14.20
2019-01-20T04:26:31.686Z,9.18
2019-01-20T04:27:13.312Z,9.70
2019-01-20T04:28:13.323Z,13.70
2019-01-20T04:29:01.597Z,13.08
2019-01-20T04:29:13.336Z,12.90
2019-01-20T04:30:13.342Z,12.20
2019-01-20T04:31:13.365Z,10.90
2019-01-20T04:31:29.279Z,7.08
2019-01-20T04:32:13.360Z,16.70
2019-01-20T04:33:13.361Z,10.00
2019-01-20T04:33:56.819Z,9.10
2019-01-20T04:34:13.369Z,11.80
2019-01-20T04:35:13.387Z,12.20
2019-01-20T04:36:13.399Z,11.60
2019-01-20T04:36:24.475Z,9.45
2019-01-20T04:37:13.398Z,14.40
2019-01-20T04:38:13.421Z,11.90
2019-01-20T04:38:52.134Z,10.20
2019-01-20T04:39:13.439Z,12.20
2019-01-20T04:40:13.446Z,12.80
2019-01-20T04:41:13.439Z,8.40
2019-01-20T04:41:19.820Z,8.93
2019-01-20T04:42:13.445Z,11.90
2019-01-20T04:43:13.452Z,15.20
2019-01-20T04:43:47.536Z,14.63
2019-01-20T04:44:13.466Z,12.30
2019-01-20T04:45:13.476Z,12.40
2019-01-20T04:46:13.483Z,13.30
2019-01-20T04:46:15.121Z,9.88
2019-01-20T04:47:13.498Z,11.70
2019-01-20T04:48:13.509Z,12.70
2019-01-20T04:48:42.735Z,11.08
2019-01-20T04:49:13.527Z,13.30
2019-01-20T04:50:13.524Z,13.30
2019-01-20T04:51:10.579Z,9.20
2019-01-20T04:51:13.528Z,11.80
2019-01-20T04:52:13.534Z,15.40
2019-01-20T04:53:13.542Z,14.90
2019-01-20T04:53:38.408Z,10.88
2019-01-20T04:54:13.549Z,11.10
2019-01-20T04:55:13.591Z,11.90
2019-01-20T04:56:06.004Z,8.35
2019-01-20T04:56:13.568Z,12.40
2019-01-20T04:57:13.577Z,14.00
2019-01-20T04:58:13.591Z,12.20
2019-01-20T04:58:36.449Z,12.40
2019-01-20T04:59:13.601Z,14.30
2019-01-20T05:00:13.607Z,11.20
2019-01-20T05:01:03.991Z,9.30
2019-01-20T05:01:13.619Z,11.50
2019-01-20T05:02:13.629Z,13.90
2019-01-20T05:03:13.628Z,10.70
2019-01-20T05:03:31.726Z,10.25
2019-01-20T05:04:13.640Z,10.20
2019-01-20T05:05:13.657Z,12.40
2019-01-20T05:05:59.397Z,8.85
2019-01-20T05:06:13.682Z,12.40
2019-01-20T05:07:13.665Z,12.50
2019-01-20T05:08:13.681Z,12.00
2019-01-20T05:08:26.911Z,10.90
2019-01-20T05:09:13.698Z,11.40
2019-01-20T05:10:13.700Z,11.30
2019-01-20T05:10:54.487Z,11.05
2019-01-20T05:11:13.701Z,11.00
2019-01-20T05:12:13.710Z,13.70
2019-01-20T05:13:13.722Z,13.40
2019-01-20T05:13:22.093Z,10.23
2019-01-20T05:14:13.734Z,13.30
2019-01-20T05:15:13.740Z,10.60
2019-01-20T05:15:49.814Z,8.85
2019-01-20T05:16:13.747Z,10.90
2019-01-20T05:17:13.764Z,12.00
2019-01-20T05:18:13.765Z,10.20
2019-01-20T05:18:17.408Z,11.22
2019-01-20T05:19:13.784Z,13.50
2019-01-20T05:20:13.793Z,13.50
2019-01-20T05:20:45.027Z,10.82
2019-01-20T05:21:13.790Z,14.60
2019-01-20T05:22:13.799Z,14.10
2019-01-20T05:23:12.587Z,12.80
2019-01-20T05:23:13.807Z,12.70
2019-01-20T05:24:13.815Z,11.80
2019-01-20T05:25:13.832Z,14.50
2019-01-20T05:25:40.278Z,11.33
2019-01-20T05:26:13.834Z,13.30
2019-01-20T05:27:13.842Z,16.10
2019-01-20T05:28:08.214Z,11.60
2019-01-20T05:28:13.872Z,14.00
2019-01-20T05:29:13.864Z,14.10
2019-01-20T05:30:13.869Z,14.30
2019-01-20T05:30:35.877Z,12.18
2019-01-20T05:31:13.876Z,11.70
2019-01-20T05:32:13.887Z,11.20
2019-01-20T05:33:03.456Z,10.48
2019-01-20T05:33:13.906Z,11.70
2019-01-20T05:34:13.921Z,15.10
2019-01-20T05:35:13.921Z,11.90
2019-01-20T05:35:31.192Z,9.30
2019-01-20T05:36:13.932Z,15.00
2019-01-20T05:37:13.939Z,12.30
2019-01-20T05:37:58.867Z,10.40
2019-01-20T05:38:13.947Z,12.10
2019-01-20T05:39:13.955Z,13.10
2019-01-20T05:40:14.003Z,10.30
2019-01-20T05:40:26.419Z,9.10
2019-01-20T05:41:13.972Z,11.90
2019-01-20T05:42:13.979Z,12.00
2019-01-20T05:42:54.032Z,8.90
2019-01-20T05:43:13.982Z,12.20
2019-01-20T05:44:14.012Z,13.40
2019-01-20T05:45:14.009Z,11.90
2019-01-20T05:45:22.678Z,9.88
2019-01-20T05:46:14.012Z,11.20
2019-01-20T05:47:14.037Z,13.60
2019-01-20T05:47:50.419Z,11.48
2019-01-20T05:48:14.031Z,12.50
2019-01-20T05:49:14.036Z,13.60
2019-01-20T05:50:14.057Z,12.10
2019-01-20T05:50:17.948Z,11.18
2019-01-20T05:51:14.080Z,12.30
2019-01-20T05:52:14.077Z,13.50
2019-01-20T05:52:45.496Z,8.78
2019-01-20T05:53:14.081Z,18.80
2019-01-20T05:54:14.084Z,10.10
2019-01-20T05:55:13.207Z,8.35
2019-01-20T05:55:14.585Z,11.80
2019-01-20T05:56:14.110Z,11.90
2019-01-20T05:57:14.117Z,15.10
2019-01-20T05:57:40.842Z,14.83
2019-01-20T05:58:14.124Z,12.10
2019-01-20T05:59:14.152Z,12.50
2019-01-20T06:00:14.138Z,14.40
2019-01-20T06:00:28.074Z,10.72
2019-01-20T06:01:14.149Z,12.90
2019-01-20T06:02:14.163Z,12.90
2019-01-20T06:02:55.867Z,13.00
2019-01-20T06:03:14.161Z,16.20
2019-01-20T06:04:14.174Z,16.20
2019-01-20T06:05:14.184Z,14.80
2019-01-20T06:05:32.821Z,14.40
2019-01-20T06:06:14.187Z,14.80
2019-01-20T06:07:14.196Z,15.50
2019-01-20T06:08:00.384Z,12.70
2019-01-20T06:08:14.226Z,17.60
2019-01-20T06:09:14.216Z,13.40
2019-01-20T06:10:14.233Z,12.00
2019-01-20T06:10:28.145Z,9.75
2019-01-20T06:11:14.230Z,16.20
2019-01-20T06:12:14.240Z,16.50
2019-01-20T06:12:55.867Z,9.98
2019-01-20T06:13:14.249Z,12.80
2019-01-20T06:14:14.264Z,11.90
2019-01-20T06:15:14.267Z,12.50
2019-01-20T06:15:23.662Z,11.68
2019-01-20T06:16:14.275Z,17.20
2019-01-20T06:17:14.312Z,12.20
2019-01-20T06:17:51.248Z,12.47
2019-01-20T06:18:14.327Z,12.00
2019-01-20T06:19:14.302Z,11.40
2019-01-20T06:20:14.306Z,11.60
2019-01-20T06:20:18.884Z,10.30
2019-01-20T06:21:14.318Z,15.60
2019-01-20T06:22:14.352Z,12.80
2019-01-20T06:22:46.465Z,10.43
2019-01-20T06:23:14.338Z,11.70
2019-01-20T06:24:14.341Z,14.80
2019-01-20T06:25:14.103Z,8.53
2019-01-20T06:25:14.352Z,14.90
2019-01-20T06:26:14.379Z,13.60
2019-01-20T06:27:14.376Z,13.70
2019-01-20T06:27:41.624Z,9.98
2019-01-20T06:28:14.385Z,11.60
2019-01-20T06:29:14.393Z,12.20
2019-01-20T06:30:14.401Z,13.40
2019-01-20T06:30:19.378Z,13.22
2019-01-20T06:31:14.423Z,15.70
2019-01-20T06:32:14.434Z,13.80
2019-01-20T06:32:47.029Z,9.93
2019-01-20T06:33:14.422Z,12.20
2019-01-20T06:34:14.444Z,11.00
2019-01-20T06:35:14.456Z,12.30
2019-01-20T06:35:14.731Z,10.65
2019-01-20T06:36:14.460Z,13.90
2019-01-20T06:37:14.456Z,13.30
2019-01-20T06:37:42.368Z,15.03
2019-01-20T06:38:14.464Z,11.30
2019-01-20T06:39:14.477Z,13.00
2019-01-20T06:40:10.210Z,11.35
2019-01-20T06:40:14.492Z,11.90
2019-01-20T06:41:14.486Z,12.10
2019-01-20T06:42:14.503Z,12.90
2019-01-20T06:42:37.967Z,10.38
2019-01-20T06:43:14.524Z,11.40
2019-01-20T06:44:14.518Z,14.10
2019-01-20T06:45:06.053Z,9.80
2019-01-20T06:45:14.525Z,11.70
2019-01-20T06:46:14.539Z,11.30
2019-01-20T06:47:14.549Z,16.30
2019-01-20T06:47:33.601Z,9.60
2019-01-20T06:48:14.559Z,13.70
2019-01-20T06:49:14.565Z,13.50
2019-01-20T06:50:01.199Z,10.65
2019-01-20T06:50:14.569Z,11.90
2019-01-20T06:51:14.586Z,13.10
2019-01-20T06:52:14.614Z,12.30
2019-01-20T06:52:28.820Z,9.85
2019-01-20T06:53:14.603Z,13.50
2019-01-20T06:54:14.629Z,12.30
2019-01-20T06:54:56.573Z,9.58
2019-01-20T06:55:14.622Z,14.40
2019-01-20T06:56:14.628Z,12.50
2019-01-20T06:57:14.640Z,13.60
2019-01-20T06:57:24.125Z,9.83
2019-01-20T06:58:14.636Z,13.30
2019-01-20T06:59:14.652Z,14.90
2019-01-20T06:59:51.822Z,11.78
2019-01-20T07:00:14.686Z,15.00
2019-01-20T07:01:14.663Z,11.60
2019-01-20T07:02:14.680Z,12.00
2019-01-20T07:02:19.526Z,7.70
2019-01-20T07:03:14.685Z,13.70
2019-01-20T07:04:14.692Z,12.10
2019-01-20T07:04:47.215Z,9.45
2019-01-20T07:05:14.698Z,12.10
2019-01-20T07:06:14.711Z,11.30
2019-01-20T07:07:14.721Z,11.80
2019-01-20T07:07:15.128Z,10.95
2019-01-20T07:08:14.737Z,16.40
2019-01-20T07:09:14.739Z,14.10
2019-01-20T07:09:42.644Z,12.85
2019-01-20T07:10:14.758Z,14.70
2019-01-20T07:11:14.749Z,16.10
2019-01-20T07:12:10.425Z,9.03
2019-01-20T07:12:14.758Z,15.40
2019-01-20T07:13:14.768Z,11.80
2019-01-20T07:14:14.775Z,11.00
2019-01-20T07:14:38.064Z,13.00
2019-01-20T07:15:14.802Z,15.60
2019-01-20T07:16:14.795Z,11.40
2019-01-20T07:17:05.671Z,14.05
2019-01-20T07:17:14.806Z,12.50
2019-01-20T07:18:14.817Z,12.30
2019-01-20T07:19:14.826Z,13.00
2019-01-20T07:19:33.321Z,10.90
2019-01-20T07:20:14.844Z,13.20
2019-01-20T07:21:14.858Z,13.90
2019-01-20T07:22:01.047Z,11.48
2019-01-20T07:22:14.843Z,15.00
2019-01-20T07:23:14.850Z,14.00
2019-01-20T07:24:14.857Z,15.30
2019-01-20T07:24:28.811Z,11.57
2019-01-20T07:25:14.874Z,11.70
2019-01-20T07:26:14.879Z,12.20
2019-01-20T07:26:56.534Z,12.50
2019-01-20T07:27:14.895Z,16.00
2019-01-20T07:28:14.900Z,13.70
2019-01-20T07:29:14.954Z,12.40
2019-01-20T07:29:24.751Z,11.08
2019-01-20T07:30:14.917Z,13.50
2019-01-20T07:31:14.917Z,14.30
2019-01-20T07:31:52.519Z,10.18
2019-01-20T07:32:14.938Z,13.20
2019-01-20T07:33:14.950Z,15.70
2019-01-20T07:34:14.960Z,13.60
2019-01-20T07:34:20.196Z,12.05
2019-01-20T07:35:14.972Z,14.20
2019-01-20T07:36:14.964Z,14.10
2019-01-20T07:36:48.043Z,11.88
2019-01-20T07:37:14.974Z,14.10
2019-01-20T07:38:14.988Z,13.20
2019-01-20T07:39:14.989Z,14.60
2019-01-20T07:39:15.797Z,12.25
2019-01-20T07:40:15.010Z,16.10
2019-01-20T07:41:15.022Z,17.40
2019-01-20T07:41:43.374Z,16.20
2019-01-20T07:42:15.014Z,19.40
2019-01-20T07:43:17.018Z,22.50
2019-01-20T07:44:11.042Z,15.30
2019-01-20T07:44:15.032Z,17.80
2019-01-20T07:45:15.103Z,17.50
2019-01-20T07:46:15.056Z,18.70
2019-01-20T07:46:38.980Z,18.67
2019-01-20T07:47:15.063Z,22.50
2019-01-20T07:48:15.074Z,22.20
2019-01-20T07:49:06.559Z,19.85
2019-01-20T07:49:15.094Z,19.70
2019-01-20T07:50:15.087Z,24.40
2019-01-20T07:51:15.103Z,24.50
2019-01-20T07:51:34.088Z,20.00
2019-01-20T07:52:15.107Z,21.10
2019-01-20T07:53:15.114Z,20.60
2019-01-20T07:54:01.658Z,16.30
2019-01-20T07:54:15.126Z,22.80
2019-01-20T07:55:15.133Z,21.60
2019-01-20T07:56:15.180Z,20.50
2019-01-20T07:56:29.320Z,14.75
2019-01-20T07:57:15.151Z,19.00
2019-01-20T07:58:15.157Z,19.30
2019-01-20T07:58:56.978Z,13.90
2019-01-20T07:59:15.164Z,18.00
2019-01-20T08:00:15.177Z,15.60
2019-01-20T08:01:15.197Z,21.00
2019-01-20T08:01:24.737Z,13.03
2019-01-20T08:02:15.191Z,17.30
2019-01-20T08:03:15.216Z,13.70
2019-01-20T08:03:52.379Z,10.90
2019-01-20T08:04:15.214Z,17.20
2019-01-20T08:05:15.222Z,15.20
2019-01-20T08:06:15.226Z,15.40
2019-01-20T08:06:20.196Z,13.13
2019-01-20T08:07:15.231Z,15.20
2019-01-20T08:08:15.244Z,15.50
2019-01-20T08:08:47.928Z,14.73
2019-01-20T08:09:15.250Z,14.30
2019-01-20T08:10:15.271Z,12.60
2019-01-20T08:11:15.289Z,15.10
2019-01-20T08:11:15.698Z,14.95
2019-01-20T08:12:15.286Z,15.50
2019-01-20T08:13:15.292Z,14.60
2019-01-20T08:13:43.348Z,17.42
2019-01-20T08:14:15.299Z,20.20
2019-01-20T08:15:15.306Z,19.30
2019-01-20T08:16:10.907Z,20.05
2019-01-20T08:16:15.317Z,21.30
2019-01-20T08:17:15.324Z,23.10
2019-01-20T08:18:15.334Z,19.10
2019-01-20T08:18:38.455Z,18.07
2019-01-20T08:19:15.355Z,18.00
2019-01-20T08:20:15.361Z,19.40
2019-01-20T08:21:06.331Z,13.50
2019-01-20T08:21:15.362Z,19.70
2019-01-20T08:22:15.369Z,18.80
2019-01-20T08:23:15.381Z,20.80
2019-01-20T08:23:33.963Z,13.98
2019-01-20T08:24:15.406Z,18.20
2019-01-20T08:25:15.399Z,17.40
2019-01-20T08:26:01.519Z,14.35
2019-01-20T08:26:15.411Z,17.50
2019-01-20T08:27:15.421Z,17.60
2019-01-20T08:28:15.431Z,17.70
2019-01-20T08:28:29.217Z,12.95
2019-01-20T08:29:15.463Z,15.10
2019-01-20T08:30:15.464Z,18.60
2019-01-20T08:30:56.919Z,15.38
2019-01-20T08:31:15.459Z,16.40
2019-01-20T08:32:15.473Z,16.50
2019-01-20T08:33:15.491Z,17.20
2019-01-20T08:33:24.478Z,14.50
2019-01-20T08:34:15.487Z,19.40
2019-01-20T08:35:15.500Z,16.70
2019-01-20T08:35:52.294Z,14.80
2019-01-20T08:36:15.507Z,19.50
2019-01-20T08:37:15.520Z,20.70
2019-01-20T08:38:15.535Z,19.50
2019-01-20T08:38:19.828Z,13.65
2019-01-20T08:39:15.549Z,21.40
2019-01-20T08:40:15.546Z,17.90
2019-01-20T08:40:47.409Z,13.72
2019-01-20T08:41:15.556Z,16.60
2019-01-20T08:42:15.570Z,18.40
2019-01-20T08:43:14.975Z,15.85
2019-01-20T08:43:15.578Z,17.70
2019-01-20T08:44:15.588Z,16.00
2019-01-20T08:45:15.615Z,20.90
2019-01-20T08:46:01.281Z,13.58
2019-01-20T08:46:15.616Z,18.20
2019-01-20T08:47:15.625Z,15.10
2019-01-20T08:48:15.629Z,16.30
2019-01-20T08:48:29.050Z,12.07
2019-01-20T08:49:15.638Z,20.20
2019-01-20T08:50:15.656Z,17.50
2019-01-20T08:50:56.883Z,12.40
2019-01-20T08:51:15.663Z,20.00
2019-01-20T08:52:15.685Z,18.90
2019-01-20T08:53:15.679Z,20.40
2019-01-20T08:53:24.401Z,14.58
2019-01-20T08:54:15.687Z,17.20
2019-01-20T08:55:15.701Z,20.50
2019-01-20T08:55:52.027Z,16.95
2019-01-20T08:56:15.719Z,24.10
2019-01-20T08:57:15.723Z,21.10
2019-01-20T08:58:15.736Z,18.30
2019-01-20T08:58:20.289Z,13.75
2019-01-20T08:59:15.739Z,19.60
2019-01-20T09:00:15.751Z,20.00
2019-01-20T09:00:48.050Z,13.08
2019-01-20T09:01:15.758Z,17.20
2019-01-20T09:02:15.770Z,19.00
2019-01-20T09:03:15.720Z,15.30
2019-01-20T09:03:15.780Z,19.20
2019-01-20T09:04:15.798Z,22.40
2019-01-20T09:05:15.807Z,22.80
2019-01-20T09:05:45.117Z,13.43
2019-01-20T09:06:15.812Z,22.10
2019-01-20T09:07:15.825Z,24.60
2019-01-20T09:08:12.872Z,13.72
2019-01-20T09:08:15.832Z,20.40
2019-01-20T09:09:15.841Z,20.30
2019-01-20T09:10:15.846Z,18.80
2019-01-20T09:10:40.431Z,17.32
2019-01-20T09:11:15.868Z,24.10
2019-01-20T09:12:15.878Z,21.10
2019-01-20T09:13:09.475Z,17.50
2019-01-20T09:13:15.887Z,19.30
2019-01-20T09:14:15.919Z,21.70